Time;durP1;ratioP1;P1;durP2;ratioP2;P2;SDS_P1;SDS_P2;PMS_P1;PMS_P2;Temp;Humidity;BMP_temperature;BMP_pressure;BME280_temperature;BME280_humidity;BME280_pressure;Samples;Min_cycle;Max_cycle;Signal;HPM_P1;HPM_P2
2021/01/25 00:02:14;;;;;;;8.28;2.83;;;0.30;99.90;;;;;;1892479;76;21076;-73
2021/01/25 00:04:40;;;;;;;7.20;3.12;;;0.30;99.90;;;;;;1892447;76;21130;-72
2021/01/25 00:07:06;;;;;;;4.53;2.77;;;0.30;99.90;;;;;;1892440;76;21142;-72
2021/01/25 00:09:32;;;;;;;3.22;2.33;;;0.30;99.90;;;;;;1893485;75;21143;-72
2021/01/25 00:11:58;;;;;;;5.85;3.25;;;0.30;99.90;;;;;;1896924;75;21101;-72
2021/01/25 00:14:24;;;;;;;6.87;2.98;;;0.30;99.90;;;;;;1896450;75;21136;-72
2021/01/25 00:16:50;;;;;;;5.00;2.45;;;0.30;99.90;;;;;;1893660;76;21077;-72
2021/01/25 00:19:17;;;;;;;4.90;2.92;;;0.30;99.90;;;;;;1893235;76;21069;-72
2021/01/25 00:21:43;;;;;;;3.85;2.70;;;0.20;99.90;;;;;;1892581;76;21142;-73
2021/01/25 00:24:09;;;;;;;5.53;3.33;;;0.20;99.90;;;;;;1892382;76;21073;-72
2021/01/25 00:26:35;;;;;;;11.35;2.85;;;0.30;99.90;;;;;;1892255;76;21081;-72
2021/01/25 00:29:01;;;;;;;4.62;2.75;;;0.30;99.90;;;;;;1892421;76;21459;-73
2021/01/25 00:31:27;;;;;;;4.62;3.02;;;0.30;99.90;;;;;;1892427;76;21462;-72
2021/01/25 00:33:53;;;;;;;3.35;2.77;;;0.30;99.90;;;;;;1892492;76;21433;-73
2021/01/25 00:36:19;;;;;;;3.15;2.58;;;0.30;99.90;;;;;;1898178;75;21162;-72
2021/01/25 00:38:46;;;;;;;10.78;3.80;;;0.20;99.90;;;;;;1893313;75;21082;-73
2021/01/25 00:41:12;;;;;;;4.70;3.35;;;0.10;99.90;;;;;;1893774;75;21077;-73
2021/01/25 00:43:38;;;;;;;5.62;3.08;;;0.20;99.90;;;;;;1892413;76;21120;-72
2021/01/25 00:46:04;;;;;;;7.60;3.52;;;0.30;99.90;;;;;;1892463;76;21217;-73
2021/01/25 00:48:30;;;;;;;4.53;3.37;;;0.20;99.90;;;;;;1892484;76;21050;-72
2021/01/25 00:50:56;;;;;;;6.15;3.17;;;0.10;99.90;;;;;;1892461;76;21069;-72
2021/01/25 00:53:22;;;;;;;5.35;2.22;;;0.10;99.90;;;;;;1892496;76;21073;-73
2021/01/25 00:55:48;;;;;;;2.37;1.98;;;0.10;99.90;;;;;;1892497;76;21116;-72
2021/01/25 00:58:15;;;;;;;3.65;2.62;;;0.10;99.90;;;;;;1892395;76;21288;-72
2021/01/25 01:00:41;;;;;;;4.40;2.30;;;0.10;99.90;;;;;;1892386;76;21154;-72
2021/01/25 01:03:07;;;;;;;4.20;2.00;;;0.00;99.90;;;;;;1892395;76;21569;-72
2021/01/25 01:05:33;;;;;;;4.25;2.45;;;0.00;99.90;;;;;;1892594;76;21391;-73
2021/01/25 01:07:59;;;;;;;3.08;2.65;;;0.10;99.90;;;;;;1892384;76;21450;-72
2021/01/25 01:10:25;;;;;;;2.62;2.27;;;0.10;99.90;;;;;;1892444;76;21493;-72
2021/01/25 01:12:51;;;;;;;3.50;2.20;;;0.20;99.90;;;;;;1892561;76;21073;-73
2021/01/25 01:15:17;;;;;;;2.80;2.37;;;0.20;99.90;;;;;;1892405;76;21081;-73
2021/01/25 01:17:44;;;;;;;3.50;2.70;;;0.20;99.90;;;;;;1892461;76;21119;-72
2021/01/25 01:20:10;;;;;;;3.35;2.02;;;0.30;99.90;;;;;;1892559;76;21093;-73
2021/01/25 01:22:36;;;;;;;3.52;2.08;;;0.30;99.90;;;;;;1892286;76;21050;-71
2021/01/25 01:25:02;;;;;;;3.47;2.55;;;0.30;99.90;;;;;;1892533;76;21046;-72
2021/01/25 01:27:28;;;;;;;10.05;2.95;;;0.40;99.90;;;;;;1892336;76;21603;-72
2021/01/25 01:29:54;;;;;;;3.80;2.50;;;0.40;99.90;;;;;;1892356;76;21470;-72
2021/01/25 01:32:20;;;;;;;3.83;2.42;;;0.50;99.90;;;;;;1892499;76;21485;-72
2021/01/25 01:34:47;;;;;;;3.98;2.50;;;0.60;99.90;;;;;;1892376;76;21081;-72
2021/01/25 01:37:13;;;;;;;13.70;2.12;;;0.60;99.90;;;;;;1892468;76;21143;-72
2021/01/25 01:39:40;;;;;;;4.20;2.40;;;0.60;99.90;;;;;;1892312;75;21166;-71
2021/01/25 01:42:06;;;;;;;4.83;2.60;;;0.60;99.90;;;;;;1892526;76;21093;-72
2021/01/25 01:44:32;;;;;;;2.77;2.10;;;0.40;99.90;;;;;;1892567;76;21426;-71
2021/01/25 01:46:58;;;;;;;3.02;2.15;;;0.40;99.90;;;;;;1892461;76;21605;-72
2021/01/25 01:49:24;;;;;;;4.08;2.17;;;0.60;99.90;;;;;;1892421;76;21516;-72
2021/01/25 01:51:50;;;;;;;2.30;1.80;;;0.50;99.90;;;;;;1892749;76;21073;-72
2021/01/25 01:54:16;;;;;;;3.35;2.37;;;0.50;99.90;;;;;;1892885;76;21187;-73
2021/01/25 01:56:43;;;;;;;3.12;2.08;;;0.40;99.90;;;;;;1893185;76;21085;-73
2021/01/25 01:59:09;;;;;;;3.12;1.95;;;0.40;99.90;;;;;;1893037;76;21162;-72
2021/01/25 02:01:35;;;;;;;3.52;1.98;;;0.50;99.90;;;;;;1893115;76;21050;-71
2021/01/25 02:04:01;;;;;;;2.87;1.70;;;0.40;99.90;;;;;;1893254;76;21190;-71
2021/01/25 02:06:27;;;;;;;2.55;1.70;;;0.40;99.90;;;;;;1893131;76;21454;-73
2021/01/25 02:08:53;;;;;;;3.98;1.82;;;0.50;99.90;;;;;;1893074;76;21449;-71
2021/01/25 02:11:19;;;;;;;3.98;2.27;;;0.40;99.90;;;;;;1893061;76;21496;-73
2021/01/25 02:13:45;;;;;;;2.95;2.12;;;0.30;99.90;;;;;;1892360;76;21171;-73
2021/01/25 02:16:12;;;;;;;5.08;1.85;;;0.20;99.90;;;;;;1892347;76;21080;-71
2021/01/25 02:18:38;;;;;;;2.02;1.77;;;0.20;99.90;;;;;;1892201;76;21084;-73
2021/01/25 02:21:05;;;;;;;4.20;2.17;;;0.30;99.90;;;;;;1892262;76;21101;-72
2021/01/25 02:23:31;;;;;;;5.92;1.90;;;0.40;99.90;;;;;;1892311;76;21147;-72
2021/01/25 02:25:57;;;;;;;3.95;1.57;;;0.40;99.90;;;;;;1892360;76;21097;-72
2021/01/25 02:28:23;;;;;;;2.52;1.72;;;0.40;99.90;;;;;;1892607;76;21077;-72
2021/01/25 02:30:49;;;;;;;4.50;1.70;;;0.40;99.90;;;;;;1892875;76;21086;-72
2021/01/25 02:33:15;;;;;;;3.95;2.00;;;0.40;99.90;;;;;;1893046;76;21046;-72
2021/01/25 02:35:41;;;;;;;2.50;1.87;;;0.40;99.90;;;;;;1893061;76;21146;-72
2021/01/25 02:38:07;;;;;;;1.67;1.40;;;0.40;99.90;;;;;;1893139;76;21085;-72
2021/01/25 02:40:34;;;;;;;2.98;2.35;;;0.40;99.90;;;;;;1893086;76;21083;-73
2021/01/25 02:43:00;;;;;;;2.40;1.87;;;0.40;99.90;;;;;;1892887;76;21092;-71
2021/01/25 02:45:26;;;;;;;2.10;1.63;;;0.40;99.90;;;;;;1892956;76;21080;-72
2021/01/25 02:47:52;;;;;;;2.10;1.80;;;0.40;99.90;;;;;;1892918;76;21494;-72
2021/01/25 02:50:18;;;;;;;3.05;1.98;;;0.30;99.90;;;;;;1892908;76;21426;-73
2021/01/25 02:52:44;;;;;;;3.42;1.52;;;0.40;99.90;;;;;;1892907;76;21049;-73
2021/01/25 02:55:10;;;;;;;2.95;1.72;;;0.40;99.90;;;;;;1892929;76;21081;-72
2021/01/25 02:57:36;;;;;;;2.12;1.60;;;0.50;99.90;;;;;;1892893;76;21073;-72
2021/01/25 03:00:02;;;;;;;1.25;1.15;;;0.60;99.90;;;;;;1892936;76;21081;-72
2021/01/25 03:02:29;;;;;;;1.70;1.40;;;0.50;99.90;;;;;;1893132;76;21224;-72
2021/01/25 03:04:55;;;;;;;3.75;1.85;;;0.50;99.90;;;;;;1893024;76;21081;-71
2021/01/25 03:07:21;;;;;;;1.40;1.30;;;0.60;99.90;;;;;;1893083;76;21086;-73
2021/01/25 03:09:47;;;;;;;2.67;1.50;;;0.60;99.90;;;;;;1870713;76;21034;-71
2021/01/25 03:12:13;;;;;;;4.35;1.62;;;0.60;99.90;;;;;;1893162;76;21088;-72
2021/01/25 03:14:39;;;;;;;1.98;1.50;;;0.70;99.90;;;;;;1892810;76;21120;-71
2021/01/25 03:17:05;;;;;;;13.98;2.37;;;0.70;99.90;;;;;;1892994;76;21088;-71
2021/01/25 03:19:31;;;;;;;1.27;1.17;;;0.80;99.90;;;;;;1892848;76;21158;-72
2021/01/25 03:21:58;;;;;;;1.65;1.37;;;0.70;99.90;;;;;;1892892;76;21549;-71
2021/01/25 03:24:24;;;;;;;2.00;1.60;;;0.70;99.90;;;;;;1892922;76;21509;-71
2021/01/25 03:26:50;;;;;;;2.95;1.98;;;0.70;99.90;;;;;;1892899;76;21450;-72
2021/01/25 03:29:16;;;;;;;2.15;1.77;;;0.60;99.90;;;;;;1906590;75;21162;-71
2021/01/25 03:31:42;;;;;;;5.47;1.60;;;0.60;99.90;;;;;;1892915;76;21081;-72
2021/01/25 03:34:08;;;;;;;3.70;1.77;;;0.50;99.90;;;;;;1892891;76;21147;-72
2021/01/25 03:36:34;;;;;;;1.87;1.40;;;0.50;99.90;;;;;;1892887;76;21111;-72
2021/01/25 03:39:00;;;;;;;3.98;1.65;;;0.50;99.90;;;;;;1892893;76;21147;-72
2021/01/25 03:41:27;;;;;;;6.90;1.67;;;0.60;99.90;;;;;;1888964;76;21058;-72
2021/01/25 03:43:53;;;;;;;3.87;1.85;;;0.70;99.90;;;;;;1892886;75;21166;-72
2021/01/25 03:46:19;;;;;;;1.75;1.45;;;0.70;99.90;;;;;;1897790;75;21243;-71
2021/01/25 03:48:45;;;;;;;2.42;1.55;;;0.80;99.90;;;;;;1898572;74;21092;-73
2021/01/25 03:51:11;;;;;;;2.22;1.62;;;0.70;99.90;;;;;;1893723;75;21077;-71
2021/01/25 03:53:37;;;;;;;5.70;1.82;;;0.80;99.90;;;;;;1892930;76;21077;-72
2021/01/25 03:56:03;;;;;;;3.42;1.70;;;0.70;99.90;;;;;;1892973;76;21497;-71
2021/01/25 03:58:29;;;;;;;3.37;1.80;;;0.70;99.90;;;;;;1892890;76;21453;-72
2021/01/25 04:00:55;;;;;;;4.50;1.85;;;0.70;99.90;;;;;;1892892;76;21480;-71
2021/01/25 04:03:22;;;;;;;4.17;1.90;;;0.60;99.90;;;;;;1892994;76;21077;-72
2021/01/25 04:05:48;;;;;;;1.60;1.42;;;0.60;99.90;;;;;;1892961;76;21143;-72
2021/01/25 04:08:14;;;;;;;3.37;1.82;;;0.50;99.90;;;;;;1892986;76;21069;-72
2021/01/25 04:10:40;;;;;;;5.17;1.95;;;0.40;99.90;;;;;;1892988;76;21143;-71
2021/01/25 04:13:06;;;;;;;3.75;1.98;;;0.40;99.90;;;;;;1893007;76;21069;-72
2021/01/25 04:15:32;;;;;;;2.15;1.87;;;0.40;99.90;;;;;;1893103;76;21070;-71
2021/01/25 04:17:58;;;;;;;2.67;1.92;;;0.40;99.90;;;;;;1893080;76;21042;-72
2021/01/25 04:20:24;;;;;;;3.30;1.60;;;0.40;99.90;;;;;;1893002;76;21041;-72
2021/01/25 04:22:51;;;;;;;3.20;2.15;;;0.30;99.90;;;;;;1892961;76;21075;-73
2021/01/25 04:25:17;;;;;;;1.62;1.52;;;0.30;99.90;;;;;;1893018;76;21143;-71
2021/01/25 04:27:43;;;;;;;3.42;1.62;;;0.30;99.90;;;;;;1892980;76;21069;-71
2021/01/25 04:30:09;;;;;;;2.15;1.85;;;0.20;99.90;;;;;;1892969;76;21112;-72
2021/01/25 04:32:35;;;;;;;4.87;2.20;;;0.20;99.90;;;;;;1892983;76;21069;-72
2021/01/25 04:35:01;;;;;;;2.05;1.92;;;0.30;99.90;;;;;;1893090;76;21139;-73
2021/01/25 04:37:27;;;;;;;4.78;2.05;;;0.20;99.90;;;;;;1892978;76;21081;-72
2021/01/25 04:39:53;;;;;;;4.72;2.83;;;0.20;99.90;;;;;;1893080;76;21155;-72
2021/01/25 04:42:20;;;;;;;2.58;2.15;;;0.20;99.90;;;;;;1892981;76;21575;-71
2021/01/25 04:44:46;;;;;;;2.58;2.22;;;0.20;99.90;;;;;;1892972;76;21462;-71
2021/01/25 04:47:12;;;;;;;4.15;2.55;;;0.30;99.90;;;;;;1892957;76;21497;-71
2021/01/25 04:49:38;;;;;;;5.55;2.83;;;0.20;99.90;;;;;;1892928;76;21147;-71
2021/01/25 04:52:04;;;;;;;5.03;2.35;;;0.10;99.90;;;;;;1892944;76;21072;-72
2021/01/25 04:54:30;;;;;;;5.35;2.75;;;-0.10;99.90;;;;;;1892932;76;21073;-72
2021/01/25 04:56:56;;;;;;;5.12;3.22;;;-0.10;99.90;;;;;;1892963;76;21077;-72
2021/01/25 04:59:22;;;;;;;3.42;3.12;;;-0.10;99.90;;;;;;1892962;76;21042;-73
2021/01/25 05:01:49;;;;;;;5.72;3.92;;;-0.10;99.90;;;;;;1892936;76;21151;-71
2021/01/25 05:04:15;;;;;;;3.45;3.08;;;0.00;99.90;;;;;;1892956;76;21049;-72
2021/01/25 05:06:41;;;;;;;5.28;3.37;;;0.00;99.90;;;;;;1893067;76;21073;-72
2021/01/25 05:09:07;;;;;;;6.33;4.05;;;0.00;99.90;;;;;;1893092;76;21139;-72
2021/01/25 05:11:33;;;;;;;7.22;3.90;;;0.10;99.90;;;;;;1892861;76;21081;-73
2021/01/25 05:13:59;;;;;;;5.80;3.75;;;0.00;99.90;;;;;;1893035;76;21622;-71
2021/01/25 05:16:25;;;;;;;5.03;3.75;;;0.00;99.90;;;;;;1892882;76;21073;-72
2021/01/25 05:18:51;;;;;;;6.90;4.20;;;0.00;99.90;;;;;;1893070;76;21038;-72
2021/01/25 05:21:18;;;;;;;4.92;3.47;;;0.00;99.90;;;;;;1892971;76;21069;-72
2021/01/25 05:23:44;;;;;;;4.58;3.75;;;0.00;99.90;;;;;;1892986;76;21069;-72
2021/01/25 05:26:10;;;;;;;4.92;3.12;;;0.00;99.90;;;;;;1893967;76;21077;-73
2021/01/25 05:28:36;;;;;;;6.60;4.33;;;0.00;99.90;;;;;;1895182;76;21078;-72
2021/01/25 05:31:02;;;;;;;5.95;4.28;;;0.10;99.90;;;;;;1894685;76;21049;-72
2021/01/25 05:33:28;;;;;;;9.03;4.78;;;0.10;99.90;;;;;;1893470;76;21120;-73
2021/01/25 05:35:54;;;;;;;6.72;4.33;;;0.00;99.90;;;;;;1893638;76;21500;-73
2021/01/25 05:38:20;;;;;;;8.03;4.40;;;0.00;99.90;;;;;;1892982;76;21065;-72
2021/01/25 05:40:47;;;;;;;9.00;4.87;;;0.10;99.90;;;;;;1892992;76;21134;-73
2021/01/25 05:43:13;;;;;;;6.97;4.35;;;0.20;99.90;;;;;;1892928;76;21147;-73
2021/01/25 05:45:39;;;;;;;6.25;4.20;;;0.10;99.90;;;;;;1892970;76;21112;-73
2021/01/25 05:48:05;;;;;;;6.70;5.10;;;0.10;99.90;;;;;;1892809;76;21146;-76
2021/01/25 05:50:31;;;;;;;8.23;5.80;;;0.20;99.90;;;;;;1893089;76;21131;-77
2021/01/25 05:52:57;;;;;;;5.60;4.35;;;0.20;99.90;;;;;;1892981;76;21081;-77
2021/01/25 05:55:24;;;;;;;10.00;5.33;;;0.30;99.90;;;;;;1893178;76;21437;-76
2021/01/25 05:57:50;;;;;;;8.73;5.70;;;0.30;99.90;;;;;;1892881;75;21120;-76
2021/01/25 06:00:16;;;;;;;9.25;5.80;;;0.20;99.90;;;;;;1893087;76;21070;-77
2021/01/25 06:02:42;;;;;;;9.18;5.87;;;0.30;99.90;;;;;;1892836;76;21042;-77
2021/01/25 06:05:08;;;;;;;10.88;6.30;;;0.30;99.90;;;;;;1892867;76;21497;-78
2021/01/25 06:07:34;;;;;;;8.68;5.70;;;0.30;99.90;;;;;;1893054;76;21434;-78
2021/01/25 06:10:01;;;;;;;7.15;6.10;;;0.40;99.90;;;;;;1892849;76;21516;-78
2021/01/25 06:12:27;;;;;;;10.20;5.47;;;0.30;99.90;;;;;;1893007;76;21069;-77
2021/01/25 06:14:53;;;;;;;10.95;5.97;;;0.20;99.90;;;;;;1889320;76;21094;-77
2021/01/25 06:17:19;;;;;;;8.43;6.00;;;0.30;99.90;;;;;;1894413;75;21112;-77
2021/01/25 06:19:45;;;;;;;14.10;6.08;;;0.20;99.90;;;;;;1901439;75;21073;-78
2021/01/25 06:22:11;;;;;;;8.33;5.58;;;0.30;99.90;;;;;;1885264;76;21089;-79
2021/01/25 06:24:37;;;;;;;11.43;6.33;;;0.40;99.90;;;;;;1891038;76;21038;-80
2021/01/25 06:27:03;;;;;;;8.03;5.28;;;0.40;99.90;;;;;;1899428;75;21053;-79
2021/01/25 06:29:30;;;;;;;12.58;7.40;;;0.40;99.90;;;;;;1890573;76;21092;-79
2021/01/25 06:31:56;;;;;;;8.08;5.67;;;0.30;99.90;;;;;;1891456;76;21505;-79
2021/01/25 06:34:22;;;;;;;9.03;5.85;;;0.30;99.90;;;;;;1901736;75;21162;-79
2021/01/25 06:36:48;;;;;;;10.80;6.42;;;0.40;99.90;;;;;;1897703;75;21213;-79
2021/01/25 06:39:14;;;;;;;8.78;6.12;;;0.30;99.90;;;;;;1889312;76;21089;-79
2021/01/25 06:41:41;;;;;;;8.10;4.85;;;0.30;99.90;;;;;;1892942;76;21163;-79
2021/01/25 06:44:07;;;;;;;9.93;5.83;;;0.40;99.90;;;;;;1892935;76;21524;-79
2021/01/25 06:46:33;;;;;;;10.65;6.47;;;0.40;99.90;;;;;;1893049;76;21156;-79
2021/01/25 06:48:59;;;;;;;13.53;6.45;;;0.40;99.90;;;;;;1892868;76;21082;-78
2021/01/25 06:51:25;;;;;;;8.03;5.17;;;0.50;99.90;;;;;;1892842;76;21049;-78
2021/01/25 06:53:51;;;;;;;9.38;5.53;;;0.60;99.90;;;;;;1893029;76;21077;-79
2021/01/25 06:56:17;;;;;;;9.50;5.40;;;0.50;99.90;;;;;;1892927;76;21081;-79
2021/01/25 06:58:44;;;;;;;8.18;4.87;;;0.60;99.90;;;;;;1892912;76;21080;-80
2021/01/25 07:01:10;;;;;;;8.08;5.50;;;0.70;99.90;;;;;;1892957;76;21129;-79
2021/01/25 07:03:36;;;;;;;13.35;6.30;;;0.60;99.90;;;;;;1892831;76;21603;-79
2021/01/25 07:06:02;;;;;;;6.75;5.20;;;0.50;99.90;;;;;;1892717;76;21489;-80
2021/01/25 07:08:28;;;;;;;9.65;4.55;;;0.50;99.90;;;;;;1892824;76;21541;-80
2021/01/25 07:10:55;;;;;;;11.68;4.40;;;0.60;99.90;;;;;;1892932;76;21147;-79
2021/01/25 07:13:21;;;;;;;9.73;4.80;;;0.60;99.90;;;;;;1892850;75;21058;-79
2021/01/25 07:15:47;;;;;;;5.83;4.75;;;0.70;99.90;;;;;;1892884;76;21077;-80
2021/01/25 07:18:13;;;;;;;14.93;4.90;;;0.70;99.90;;;;;;1892842;76;21166;-80
2021/01/25 07:20:39;;;;;;;6.78;4.97;;;0.70;99.90;;;;;;1892861;76;21568;-78
2021/01/25 07:23:06;;;;;;;8.28;5.65;;;0.80;99.90;;;;;;1892876;76;21581;-78
2021/01/25 07:25:32;;;;;;;10.93;4.47;;;0.80;99.90;;;;;;1892958;76;21508;-77
2021/01/25 07:27:58;;;;;;;10.23;5.05;;;0.80;99.90;;;;;;1892911;76;21151;-78
2021/01/25 07:30:24;;;;;;;6.45;4.37;;;0.90;99.90;;;;;;1892920;76;21047;-78
2021/01/25 07:32:52;;;;;;;9.30;5.05;;;0.90;99.90;;;;;;1892902;76;21128;-79
2021/01/25 07:35:19;;;;;;;9.65;5.15;;;0.90;99.90;;;;;;1892891;76;21078;-78
2021/01/25 07:37:45;;;;;;;9.05;5.22;;;1.00;99.90;;;;;;1892789;76;21046;-78
2021/01/25 07:40:11;;;;;;;18.48;5.33;;;1.00;99.90;;;;;;1892733;76;21128;-79
2021/01/25 07:42:37;;;;;;;9.60;5.80;;;1.20;99.90;;;;;;1892992;76;21073;-79
2021/01/25 07:45:03;;;;;;;8.30;5.80;;;1.10;99.90;;;;;;1892848;76;21162;-78
2021/01/25 07:47:29;;;;;;;8.33;4.75;;;1.10;99.90;;;;;;1892774;76;21604;-78
2021/01/25 07:49:56;;;;;;;6.33;4.40;;;1.00;99.90;;;;;;1893008;76;21489;-79
2021/01/25 07:52:22;;;;;;;6.97;4.45;;;1.00;99.90;;;;;;1892781;76;21508;-78
2021/01/25 07:54:48;;;;;;;8.53;5.33;;;1.00;99.90;;;;;;1892931;76;21050;-79
2021/01/25 07:57:14;;;;;;;8.03;4.83;;;1.10;99.90;;;;;;1892821;76;21046;-78
2021/01/25 07:59:40;;;;;;;10.85;4.97;;;1.20;99.90;;;;;;1893025;75;21093;-79
2021/01/25 08:02:06;;;;;;;8.40;4.90;;;1.30;99.90;;;;;;1892963;76;21081;-80
2021/01/25 08:04:32;;;;;;;12.30;5.50;;;1.20;99.90;;;;;;1893308;76;21082;-78
2021/01/25 08:07:00;;;;;;;6.90;5.00;;;1.10;99.90;;;;;;1893990;75;21206;-79
2021/01/25 08:09:26;;;;;;;6.83;4.30;;;0.90;99.90;;;;;;1893191;76;21142;-79
2021/01/25 08:11:54;;;;;;;7.92;5.30;;;1.00;99.90;;;;;;1893476;76;21090;-78
2021/01/25 08:14:20;;;;;;;10.35;5.20;;;1.10;99.90;;;;;;1893897;76;21104;-79
2021/01/25 08:16:46;;;;;;;8.38;5.75;;;1.10;99.90;;;;;;1893536;76;21107;-79
2021/01/25 08:19:12;;;;;;;6.45;4.78;;;1.20;99.90;;;;;;1883921;75;21073;-78
2021/01/25 08:21:40;;;;;;;12.65;6.22;;;1.00;99.90;;;;;;1893787;76;21132;-78
2021/01/25 08:24:06;;;;;;;9.23;5.60;;;1.10;99.90;;;;;;1893505;76;21046;-78
2021/01/25 08:26:32;;;;;;;17.62;5.67;;;1.00;99.90;;;;;;1893835;76;21081;-78
2021/01/25 08:28:58;;;;;;;8.73;5.87;;;1.10;99.90;;;;;;1893397;76;21077;-79
2021/01/25 08:31:25;;;;;;;11.08;5.95;;;1.10;99.90;;;;;;1896162;75;21157;-77
2021/01/25 08:33:51;;;;;;;8.40;5.05;;;1.00;99.90;;;;;;1893000;76;21517;-79
2021/01/25 08:36:17;;;;;;;14.23;4.45;;;0.90;99.90;;;;;;1896058;75;21484;-78
2021/01/25 08:38:44;;;;;;;8.85;4.85;;;0.90;99.90;;;;;;1897350;75;21528;-79
2021/01/25 08:41:10;;;;;;;10.88;5.35;;;0.80;99.90;;;;;;1895036;74;21249;-79
2021/01/25 08:43:37;;;;;;;8.18;4.90;;;0.70;99.90;;;;;;1892936;76;21089;-78
2021/01/25 08:46:03;;;;;;;10.10;5.53;;;0.70;99.90;;;;;;1892892;76;21093;-80
2021/01/25 08:48:34;;;;;;;7.22;5.20;;;0.80;99.90;;;;;;1892993;76;21586;-79
2021/01/25 08:50:57;;;;;;;6.87;4.85;;;0.90;99.90;;;;;;1891912;76;21191;-79
2021/01/25 08:53:25;;;;;;;7.25;4.85;;;0.90;99.90;;;;;;1892981;76;21171;-79
2021/01/25 08:55:57;;;;;;;8.38;4.85;;;0.80;99.90;;;;;;1893137;76;21120;-80
2021/01/25 08:58:22;;;;;;;7.40;4.83;;;0.90;99.90;;;;;;1892955;75;21058;-78
2021/01/25 09:00:48;;;;;;;8.33;5.05;;;1.00;99.90;;;;;;1893229;76;21559;-79
2021/01/25 09:03:16;;;;;;;10.35;5.22;;;1.10;99.90;;;;;;1893282;76;21101;-79
2021/01/25 09:05:42;;;;;;;17.37;4.80;;;1.10;99.90;;;;;;1893574;76;21093;-80
2021/01/25 09:08:09;;;;;;;9.05;5.25;;;1.10;99.90;;;;;;1893531;76;21085;-79
2021/01/25 09:10:35;;;;;;;7.90;4.55;;;1.20;99.90;;;;;;1893517;75;21220;-78
2021/01/25 09:13:01;;;;;;;7.30;4.72;;;1.40;99.90;;;;;;1893229;75;21085;-80
2021/01/25 09:15:27;;;;;;;8.80;4.90;;;1.60;99.90;;;;;;1893098;76;21081;-78
2021/01/25 09:17:53;;;;;;;8.13;4.50;;;1.60;99.90;;;;;;1892466;76;21227;-79
2021/01/25 09:20:19;;;;;;;4.95;4.22;;;1.60;99.90;;;;;;1892426;76;21202;-78
2021/01/25 09:22:45;;;;;;;9.28;4.42;;;1.60;99.90;;;;;;1892511;76;21067;-78
2021/01/25 09:25:12;;;;;;;8.93;4.65;;;1.50;99.90;;;;;;1892423;76;21147;-78
2021/01/25 09:27:38;;;;;;;11.60;4.85;;;1.50;99.90;;;;;;1892429;75;21104;-79
2021/01/25 09:30:04;;;;;;;7.55;4.65;;;1.60;99.90;;;;;;1892603;76;21488;-79
2021/01/25 09:32:31;;;;;;;6.08;4.35;;;1.70;99.90;;;;;;1892608;76;21433;-78
2021/01/25 09:34:57;;;;;;;8.00;4.78;;;1.70;99.90;;;;;;1892424;76;21501;-80
2021/01/25 09:37:23;;;;;;;7.80;5.17;;;1.80;99.90;;;;;;1892664;76;21154;-80
2021/01/25 09:39:49;;;;;;;8.08;4.95;;;1.80;99.90;;;;;;1892793;76;21143;-80
2021/01/25 09:42:16;;;;;;;9.35;5.47;;;1.90;99.90;;;;;;1892444;76;21014;-80
2021/01/25 09:44:45;;;;;;;6.37;4.78;;;2.00;99.90;;;;;;1892504;76;21062;-77
2021/01/25 09:47:11;;;;;;;7.40;4.87;;;2.10;99.90;;;;;;1892463;76;21046;-79
2021/01/25 09:49:39;;;;;;;9.28;5.33;;;2.10;99.90;;;;;;1892343;76;21065;-78
2021/01/25 09:52:05;;;;;;;11.78;5.33;;;2.10;99.90;;;;;;1892437;76;21081;-77
2021/01/25 09:54:31;;;;;;;7.90;4.97;;;2.20;99.90;;;;;;1892808;76;21081;-77
2021/01/25 09:56:57;;;;;;;8.75;4.67;;;2.20;99.90;;;;;;1892750;76;21450;-77
2021/01/25 09:59:23;;;;;;;8.23;4.97;;;1.80;99.90;;;;;;1892619;76;21049;-77
2021/01/25 10:01:49;;;;;;;7.45;4.55;;;1.80;99.90;;;;;;1892622;76;21131;-79
2021/01/25 10:04:15;;;;;;;7.33;5.25;;;1.70;99.90;;;;;;1892295;76;21119;-78
2021/01/25 10:06:41;;;;;;;7.65;5.10;;;1.50;99.90;;;;;;1892626;76;21156;-78
2021/01/25 10:09:08;;;;;;;7.55;4.90;;;1.50;99.90;;;;;;1892343;76;21077;-77
2021/01/25 10:11:34;;;;;;;7.45;4.97;;;1.80;99.90;;;;;;1892486;76;21081;-74
2021/01/25 10:14:00;;;;;;;8.98;5.28;;;1.80;99.90;;;;;;1892526;76;21194;-75
2021/01/25 10:16:26;;;;;;;12.15;5.78;;;2.00;99.90;;;;;;1892608;76;21085;-78
2021/01/25 10:18:52;;;;;;;8.75;4.58;;;2.00;99.90;;;;;;1892562;76;21151;-77
2021/01/25 10:21:18;;;;;;;6.90;4.53;;;2.10;99.90;;;;;;1892772;76;21154;-78
2021/01/25 10:23:46;;;;;;;8.83;3.98;;;2.30;99.90;;;;;;1892411;76;21050;-78
2021/01/25 10:26:12;;;;;;;9.25;4.33;;;2.40;99.90;;;;;;1892482;76;21085;-77
2021/01/25 10:28:39;;;;;;;6.30;4.12;;;2.40;99.90;;;;;;1892551;75;21194;-78
2021/01/25 10:31:05;;;;;;;9.90;3.70;;;2.60;99.90;;;;;;1892675;76;21169;-77
2021/01/25 10:33:31;;;;;;;6.55;4.28;;;2.60;99.90;;;;;;1892839;76;21057;-77
2021/01/25 10:35:58;;;;;;;5.05;4.28;;;2.60;99.90;;;;;;1893017;76;21081;-79
2021/01/25 10:38:25;;;;;;;8.38;4.62;;;2.70;99.90;;;;;;1892986;76;21143;-79
2021/01/25 10:40:51;;;;;;;6.33;4.33;;;2.80;99.90;;;;;;1894668;75;21167;-79
2021/01/25 10:43:19;;;;;;;5.60;4.30;;;2.90;99.90;;;;;;1896066;75;21089;-79
2021/01/25 10:45:46;;;;;;;5.42;3.85;;;2.90;99.90;;;;;;1889646;76;21156;-79
2021/01/25 10:48:12;;;;;;;6.80;4.10;;;2.90;99.90;;;;;;1892943;76;21080;-78
2021/01/25 10:50:38;;;;;;;6.92;3.98;;;2.80;99.90;;;;;;1881838;75;21152;-79
2021/01/25 10:53:04;;;;;;;7.00;4.30;;;3.00;99.90;;;;;;1891172;76;21046;-79
2021/01/25 10:55:31;;;;;;;7.12;3.87;;;2.70;99.90;;;;;;1893467;76;21175;-79
2021/01/25 10:57:57;;;;;;;8.15;4.15;;;2.60;99.90;;;;;;1894920;76;21061;-78
2021/01/25 11:00:24;;;;;;;8.08;4.20;;;2.70;99.90;;;;;;1895187;76;21054;-77
2021/01/25 11:02:51;;;;;;;9.65;3.90;;;2.90;99.90;;;;;;1894570;76;21153;-79
2021/01/25 11:05:18;;;;;;;5.80;3.80;;;3.10;99.90;;;;;;1893474;75;21405;-79
2021/01/25 11:07:44;;;;;;;7.65;4.05;;;3.10;99.90;;;;;;1892613;75;21163;-78
2021/01/25 11:10:10;;;;;;;4.42;3.45;;;3.10;99.90;;;;;;1892480;76;21095;-79
2021/01/25 11:12:36;;;;;;;5.72;3.83;;;3.00;99.90;;;;;;1892610;76;21081;-79
2021/01/25 11:15:02;;;;;;;7.17;3.90;;;2.80;99.90;;;;;;1892374;76;21213;-78
2021/01/25 11:17:29;;;;;;;6.30;3.85;;;2.70;99.90;;;;;;1892432;76;21163;-79
2021/01/25 11:19:55;;;;;;;6.03;3.60;;;2.70;99.90;;;;;;1892303;76;21081;-78
2021/01/25 11:22:21;;;;;;;6.28;4.42;;;2.70;99.90;;;;;;1892501;76;21171;-77
2021/01/25 11:24:47;;;;;;;4.10;3.30;;;2.60;99.90;;;;;;1892991;76;21026;-77
2021/01/25 11:27:17;;;;;;;6.47;4.17;;;2.70;99.90;;;;;;1893947;75;21053;-78
2021/01/25 11:29:42;;;;;;;7.03;4.30;;;2.70;99.90;;;;;;1893339;75;21094;-78
2021/01/25 11:32:10;;;;;;;6.42;4.25;;;2.60;99.90;;;;;;1892511;76;21071;-78
2021/01/25 11:34:37;;;;;;;7.83;3.85;;;2.50;99.90;;;;;;1892491;76;21054;-78
2021/01/25 11:37:03;;;;;;;7.53;4.03;;;2.70;99.90;;;;;;1892384;76;21054;-78
2021/01/25 11:39:30;;;;;;;7.92;4.45;;;2.70;99.90;;;;;;1892513;76;21426;-78
2021/01/25 11:41:56;;;;;;;10.70;4.65;;;2.60;99.90;;;;;;1892405;76;21058;-78
2021/01/25 11:44:23;;;;;;;12.68;5.05;;;2.40;99.90;;;;;;1892392;76;21155;-77
2021/01/25 11:46:49;;;;;;;8.05;5.22;;;2.40;99.90;;;;;;1892419;76;21143;-78
2021/01/25 11:49:15;;;;;;;9.38;4.78;;;2.50;99.90;;;;;;1892398;76;21591;-78
2021/01/25 11:51:41;;;;;;;7.37;4.78;;;2.80;99.90;;;;;;1892350;76;21469;-77
2021/01/25 11:54:07;;;;;;;8.35;4.90;;;2.60;99.90;;;;;;1892388;76;21206;-78
2021/01/25 11:56:33;;;;;;;9.90;4.75;;;2.40;99.90;;;;;;1892415;76;21053;-78
2021/01/25 11:58:59;;;;;;;7.37;4.50;;;2.50;99.90;;;;;;1892526;76;21050;-77
2021/01/25 12:01:26;;;;;;;7.30;4.90;;;2.60;99.90;;;;;;1892848;76;21147;-78
2021/01/25 12:03:52;;;;;;;6.40;4.58;;;2.40;99.90;;;;;;1892599;76;21088;-78
2021/01/25 12:06:18;;;;;;;8.18;4.83;;;2.40;99.90;;;;;;1892785;76;21081;-79
2021/01/25 12:08:44;;;;;;;6.55;4.85;;;2.60;99.90;;;;;;1892779;76;21198;-79
2021/01/25 12:11:10;;;;;;;7.40;4.40;;;2.60;99.90;;;;;;1892698;76;21088;-79
2021/01/25 12:13:36;;;;;;;6.33;5.10;;;2.70;99.90;;;;;;1892677;76;21543;-80
2021/01/25 12:16:02;;;;;;;6.25;4.80;;;2.70;99.90;;;;;;1892900;76;21458;-79
2021/01/25 12:18:29;;;;;;;8.00;4.58;;;2.80;99.90;;;;;;1892403;76;21073;-78
2021/01/25 12:20:55;;;;;;;6.37;4.08;;;2.90;99.90;;;;;;1892665;76;21081;-80
2021/01/25 12:23:21;;;;;;;6.60;4.47;;;2.60;99.90;;;;;;1892771;76;21139;-85
2021/01/25 12:25:47;;;;;;;8.60;4.35;;;2.70;99.90;;;;;;1892896;76;21080;-86
2021/01/25 12:28:13;;;;;;;8.43;5.22;;;2.80;99.90;;;;;;1892919;76;21081;-85
2021/01/25 12:30:39;;;;;;;7.05;4.97;;;2.50;99.90;;;;;;1892742;76;21159;-85
2021/01/25 12:33:05;;;;;;;8.68;5.25;;;2.20;99.90;;;;;;1892983;76;21461;-85
2021/01/25 12:35:31;;;;;;;9.25;5.20;;;2.20;99.90;;;;;;1893121;75;21051;-84
2021/01/25 12:37:58;;;;;;;7.83;5.42;;;2.30;99.90;;;;;;1893072;76;21077;-83
2021/01/25 12:40:24;;;;;;;8.90;5.83;;;2.60;99.90;;;;;;1892882;76;21073;-86
2021/01/25 12:42:50;;;;;;;10.08;4.92;;;2.80;99.90;;;;;;1893184;76;21094;-86
2021/01/25 12:45:16;;;;;;;9.43;5.30;;;3.00;99.90;;;;;;1893032;76;21065;-85
2021/01/25 12:47:42;;;;;;;11.45;6.92;;;3.20;99.90;;;;;;1892837;76;21454;-81
2021/01/25 12:50:08;;;;;;;8.08;6.40;;;3.20;99.90;;;;;;1892783;76;21507;-83